sensor_id;sensor_type;location;lat;lon;timestamp;P1;durP1;ratioP1;P2;durP2;ratioP2
48823;SDS011;34640;53.590;10.054;2022-08-11T00:02:10;6.30;;;1.98;;
48823;SDS011;34640;53.590;10.054;2022-08-11T00:04:45;6.05;;;1.63;;
48823;SDS011;34640;53.590;10.054;2022-08-11T00:07:19;2.78;;;1.58;;
48823;SDS011;34640;53.590;10.054;2022-08-11T00:09:53;6.40;;;2.00;;
48823;SDS011;34640;53.590;10.054;2022-08-11T00:12:28;3.20;;;1.73;;
48823;SDS011;34640;53.590;10.054;2022-08-11T00:15:01;4.70;;;2.13;;
48823;SDS011;34640;53.590;10.054;2022-08-11T00:17:36;3.17;;;2.00;;
48823;SDS011;34640;53.590;10.054;2022-08-11T00:20:11;3.90;;;1.90;;
48823;SDS011;34640;53.590;10.054;2022-08-11T00:22:48;5.38;;;2.03;;
48823;SDS011;34640;53.590;10.054;2022-08-11T00:25:22;6.13;;;1.67;;
48823;SDS011;34640;53.590;10.054;2022-08-11T00:27:56;3.65;;;2.15;;
48823;SDS011;34640;53.590;10.054;2022-08-11T00:30:33;5.75;;;2.05;;
48823;SDS011;34640;53.590;10.054;2022-08-11T00:33:12;5.82;;;1.80;;
48823;SDS011;34640;53.590;10.054;2022-08-11T00:35:45;4.82;;;2.17;;
48823;SDS011;34640;53.590;10.054;2022-08-11T00:38:28;6.50;;;1.77;;
48823;SDS011;34640;53.590;10.054;2022-08-11T00:41:09;4.57;;;2.25;;
48823;SDS011;34640;53.590;10.054;2022-08-11T00:44:03;5.55;;;1.88;;
48823;SDS011;34640;53.590;10.054;2022-08-11T00:46:46;5.05;;;2.08;;
48823;SDS011;34640;53.590;10.054;2022-08-11T00:49:33;6.20;;;2.08;;
48823;SDS011;34640;53.590;10.054;2022-08-11T00:52:18;3.03;;;2.00;;
48823;SDS011;34640;53.590;10.054;2022-08-11T01:01:25;7.97;;;2.10;;
48823;SDS011;34640;53.590;10.054;2022-08-11T01:04:22;6.90;;;2.00;;
48823;SDS011;34640;53.590;10.054;2022-08-11T01:10:41;5.37;;;1.90;;
48823;SDS011;34640;53.590;10.054;2022-08-11T01:13:40;5.75;;;1.90;;
48823;SDS011;34640;53.590;10.054;2022-08-11T01:20:09;3.50;;;1.70;;
48823;SDS011;34640;53.590;10.054;2022-08-11T01:23:45;3.40;;;1.67;;
48823;SDS011;34640;53.590;10.054;2022-08-11T01:36:13;4.57;;;2.05;;
48823;SDS011;34640;53.590;10.054;2022-08-11T01:45:29;5.85;;;2.38;;
48823;SDS011;34640;53.590;10.054;2022-08-11T01:48:09;6.15;;;2.28;;
48823;SDS011;34640;53.590;10.054;2022-08-11T01:50:54;3.90;;;2.22;;
48823;SDS011;34640;53.590;10.054;2022-08-11T01:53:44;7.28;;;2.60;;
48823;SDS011;34640;53.590;10.054;2022-08-11T01:56:28;9.60;;;2.75;;
48823;SDS011;34640;53.590;10.054;2022-08-11T01:59:09;6.55;;;2.45;;
48823;SDS011;34640;53.590;10.054;2022-08-11T02:01:51;8.23;;;2.67;;
48823;SDS011;34640;53.590;10.054;2022-08-11T02:04:37;6.45;;;2.10;;
48823;SDS011;34640;53.590;10.054;2022-08-11T02:07:18;4.65;;;2.25;;
48823;SDS011;34640;53.590;10.054;2022-08-11T02:10:10;6.05;;;1.95;;
48823;SDS011;34640;53.590;10.054;2022-08-11T02:13:12;5.07;;;2.00;;
48823;SDS011;34640;53.590;10.054;2022-08-11T02:16:03;3.30;;;1.75;;
48823;SDS011;34640;53.590;10.054;2022-08-11T02:18:47;6.60;;;2.25;;
48823;SDS011;34640;53.590;10.054;2022-08-11T02:21:43;4.38;;;2.00;;
48823;SDS011;34640;53.590;10.054;2022-08-11T02:24:40;5.53;;;2.35;;
48823;SDS011;34640;53.590;10.054;2022-08-11T02:27:20;7.55;;;2.58;;
48823;SDS011;34640;53.590;10.054;2022-08-11T02:32:35;5.00;;;2.33;;
48823;SDS011;34640;53.590;10.054;2022-08-11T02:35:33;5.05;;;2.33;;
48823;SDS011;34640;53.590;10.054;2022-08-11T02:38:17;6.57;;;2.25;;
48823;SDS011;34640;53.590;10.054;2022-08-11T02:40:59;5.18;;;2.15;;
48823;SDS011;34640;53.590;10.054;2022-08-11T02:44:09;5.78;;;2.30;;
48823;SDS011;34640;53.590;10.054;2022-08-11T02:46:50;5.93;;;2.47;;
48823;SDS011;34640;53.590;10.054;2022-08-11T02:49:37;6.68;;;2.33;;
48823;SDS011;34640;53.590;10.054;2022-08-11T02:52:40;4.57;;;2.20;;
48823;SDS011;34640;53.590;10.054;2022-08-11T02:55:20;8.65;;;2.42;;
48823;SDS011;34640;53.590;10.054;2022-08-11T02:58:17;11.63;;;2.60;;
48823;SDS011;34640;53.590;10.054;2022-08-11T03:01:02;7.53;;;2.08;;
48823;SDS011;34640;53.590;10.054;2022-08-11T03:03:46;4.80;;;2.50;;
48823;SDS011;34640;53.590;10.054;2022-08-11T03:06:28;8.52;;;2.67;;
48823;SDS011;34640;53.590;10.054;2022-08-11T03:09:09;5.63;;;2.30;;
48823;SDS011;34640;53.590;10.054;2022-08-11T03:11:50;7.53;;;2.90;;
48823;SDS011;34640;53.590;10.054;2022-08-11T03:14:52;5.95;;;2.70;;
48823;SDS011;34640;53.590;10.054;2022-08-11T03:17:56;5.57;;;2.35;;
48823;SDS011;34640;53.590;10.054;2022-08-11T03:20:39;8.60;;;2.10;;
48823;SDS011;34640;53.590;10.054;2022-08-11T03:23:17;4.78;;;2.60;;
48823;SDS011;34640;53.590;10.054;2022-08-11T03:26:00;7.82;;;2.70;;
48823;SDS011;34640;53.590;10.054;2022-08-11T03:28:41;5.90;;;2.53;;
48823;SDS011;34640;53.590;10.054;2022-08-11T03:31:19;9.48;;;2.70;;
48823;SDS011;34640;53.590;10.054;2022-08-11T03:33:59;5.50;;;2.80;;
48823;SDS011;34640;53.590;10.054;2022-08-11T03:39:53;9.93;;;2.75;;
48823;SDS011;34640;53.590;10.054;2022-08-11T03:42:32;5.53;;;2.80;;
48823;SDS011;34640;53.590;10.054;2022-08-11T03:45:20;5.05;;;2.60;;
48823;SDS011;34640;53.590;10.054;2022-08-11T03:47:59;8.48;;;3.00;;
48823;SDS011;34640;53.590;10.054;2022-08-11T03:50:54;6.05;;;3.03;;
48823;SDS011;34640;53.590;10.054;2022-08-11T03:54:00;6.57;;;2.70;;
48823;SDS011;34640;53.590;10.054;2022-08-11T03:57:09;4.53;;;3.17;;
48823;SDS011;34640;53.590;10.054;2022-08-11T04:00:18;7.05;;;2.72;;
48823;SDS011;34640;53.590;10.054;2022-08-11T04:06:25;7.90;;;2.70;;
48823;SDS011;34640;53.590;10.054;2022-08-11T04:12:30;6.97;;;3.05;;
48823;SDS011;34640;53.590;10.054;2022-08-11T04:15:23;7.45;;;2.95;;
48823;SDS011;34640;53.590;10.054;2022-08-11T04:19:00;3.92;;;2.80;;
48823;SDS011;34640;53.590;10.054;2022-08-11T04:22:16;4.70;;;2.85;;
48823;SDS011;34640;53.590;10.054;2022-08-11T04:25:14;5.05;;;2.75;;
48823;SDS011;34640;53.590;10.054;2022-08-11T04:28:41;5.78;;;3.10;;
48823;SDS011;34640;53.590;10.054;2022-08-11T04:31:35;6.18;;;2.97;;
48823;SDS011;34640;53.590;10.054;2022-08-11T04:34:34;6.68;;;3.70;;
48823;SDS011;34640;53.590;10.054;2022-08-11T04:37:34;6.18;;;2.80;;
48823;SDS011;34640;53.590;10.054;2022-08-11T04:49:52;12.85;;;3.17;;
48823;SDS011;34640;53.590;10.054;2022-08-11T04:56:16;6.32;;;3.17;;
48823;SDS011;34640;53.590;10.054;2022-08-11T05:02:58;8.27;;;2.67;;
48823;SDS011;34640;53.590;10.054;2022-08-11T05:05:50;7.10;;;3.35;;
48823;SDS011;34640;53.590;10.054;2022-08-11T05:14:51;5.75;;;3.10;;
48823;SDS011;34640;53.590;10.054;2022-08-11T05:17:44;6.47;;;3.35;;
48823;SDS011;34640;53.590;10.054;2022-08-11T05:20:46;8.57;;;2.92;;
48823;SDS011;34640;53.590;10.054;2022-08-11T05:23:42;6.03;;;2.85;;
48823;SDS011;34640;53.590;10.054;2022-08-11T05:26:48;7.90;;;3.28;;
48823;SDS011;34640;53.590;10.054;2022-08-11T05:29:45;24.13;;;4.53;;
48823;SDS011;34640;53.590;10.054;2022-08-11T05:32:38;18.90;;;3.97;;
48823;SDS011;34640;53.590;10.054;2022-08-11T05:35:34;12.75;;;3.55;;
48823;SDS011;34640;53.590;10.054;2022-08-11T05:38:34;6.32;;;3.15;;
48823;SDS011;34640;53.590;10.054;2022-08-11T05:41:26;7.85;;;3.20;;
48823;SDS011;34640;53.590;10.054;2022-08-11T05:44:21;15.35;;;3.60;;
48823;SDS011;34640;53.590;10.054;2022-08-11T05:47:20;75.57;;;5.93;;
48823;SDS011;34640;53.590;10.054;2022-08-11T05:50:13;141.35;;;9.55;;
48823;SDS011;34640;53.590;10.054;2022-08-11T05:53:09;32.08;;;3.65;;
48823;SDS011;34640;53.590;10.054;2022-08-11T05:56:13;36.72;;;4.20;;
48823;SDS011;34640;53.590;10.054;2022-08-11T05:58:50;126.80;;;9.32;;
48823;SDS011;34640;53.590;10.054;2022-08-11T06:01:26;82.93;;;7.35;;
48823;SDS011;34640;53.590;10.054;2022-08-11T06:04:04;47.73;;;5.00;;
48823;SDS011;34640;53.590;10.054;2022-08-11T06:06:52;26.83;;;4.30;;
48823;SDS011;34640;53.590;10.054;2022-08-11T06:09:30;11.88;;;3.42;;
48823;SDS011;34640;53.590;10.054;2022-08-11T06:12:05;7.63;;;2.85;;
48823;SDS011;34640;53.590;10.054;2022-08-11T06:14:40;14.85;;;3.05;;
48823;SDS011;34640;53.590;10.054;2022-08-11T06:17:20;9.48;;;2.70;;
48823;SDS011;34640;53.590;10.054;2022-08-11T06:19:57;37.00;;;6.30;;
48823;SDS011;34640;53.590;10.054;2022-08-11T06:22:38;21.73;;;4.45;;
48823;SDS011;34640;53.590;10.054;2022-08-11T06:25:13;6.07;;;2.95;;
48823;SDS011;34640;53.590;10.054;2022-08-11T06:27:47;6.82;;;3.20;;
48823;SDS011;34640;53.590;10.054;2022-08-11T06:30:35;9.57;;;2.58;;
48823;SDS011;34640;53.590;10.054;2022-08-11T06:33:14;4.90;;;2.80;;
48823;SDS011;34640;53.590;10.054;2022-08-11T06:35:51;10.43;;;3.15;;
48823;SDS011;34640;53.590;10.054;2022-08-11T06:38:40;8.18;;;2.30;;
48823;SDS011;34640;53.590;10.054;2022-08-11T06:41:25;5.50;;;2.47;;
48823;SDS011;34640;53.590;10.054;2022-08-11T06:44:08;11.80;;;2.22;;
48823;SDS011;34640;53.590;10.054;2022-08-11T06:46:50;7.55;;;2.88;;
48823;SDS011;34640;53.590;10.054;2022-08-11T06:49:33;10.15;;;2.63;;
48823;SDS011;34640;53.590;10.054;2022-08-11T06:52:27;4.40;;;2.00;;
48823;SDS011;34640;53.590;10.054;2022-08-11T06:55:08;9.50;;;3.35;;
48823;SDS011;34640;53.590;10.054;2022-08-11T06:58:06;9.63;;;2.58;;
48823;SDS011;34640;53.590;10.054;2022-08-11T07:01:03;5.97;;;1.98;;
48823;SDS011;34640;53.590;10.054;2022-08-11T07:03:42;8.25;;;1.73;;
48823;SDS011;34640;53.590;10.054;2022-08-11T07:06:23;6.07;;;2.17;;
48823;SDS011;34640;53.590;10.054;2022-08-11T07:09:26;9.82;;;2.10;;
48823;SDS011;34640;53.590;10.054;2022-08-11T07:12:38;8.82;;;1.90;;
48823;SDS011;34640;53.590;10.054;2022-08-11T07:15:31;4.05;;;2.05;;
48823;SDS011;34640;53.590;10.054;2022-08-11T07:18:37;6.68;;;2.40;;
48823;SDS011;34640;53.590;10.054;2022-08-11T07:21:32;3.10;;;1.80;;
48823;SDS011;34640;53.590;10.054;2022-08-11T07:24:34;5.32;;;2.05;;
48823;SDS011;34640;53.590;10.054;2022-08-11T07:27:35;4.28;;;1.90;;
48823;SDS011;34640;53.590;10.054;2022-08-11T07:30:31;6.63;;;2.10;;
48823;SDS011;34640;53.590;10.054;2022-08-11T07:33:09;11.50;;;2.55;;
48823;SDS011;34640;53.590;10.054;2022-08-11T07:36:05;7.95;;;2.60;;
48823;SDS011;34640;53.590;10.054;2022-08-11T07:38:46;3.50;;;1.85;;
48823;SDS011;34640;53.590;10.054;2022-08-11T07:41:22;7.50;;;2.25;;
48823;SDS011;34640;53.590;10.054;2022-08-11T07:44:00;3.42;;;2.00;;
48823;SDS011;34640;53.590;10.054;2022-08-11T07:46:40;6.78;;;1.67;;
48823;SDS011;34640;53.590;10.054;2022-08-11T07:49:33;5.85;;;1.90;;
48823;SDS011;34640;53.590;10.054;2022-08-11T07:52:27;4.82;;;1.77;;
48823;SDS011;34640;53.590;10.054;2022-08-11T07:55:05;10.60;;;2.22;;
48823;SDS011;34640;53.590;10.054;2022-08-11T07:57:44;7.10;;;1.90;;
48823;SDS011;34640;53.590;10.054;2022-08-11T08:00:50;6.20;;;1.90;;
48823;SDS011;34640;53.590;10.054;2022-08-11T08:03:53;5.47;;;1.90;;
48823;SDS011;34640;53.590;10.054;2022-08-11T08:06:44;9.18;;;2.15;;
48823;SDS011;34640;53.590;10.054;2022-08-11T08:09:35;5.63;;;2.10;;
48823;SDS011;34640;53.590;10.054;2022-08-11T08:12:28;9.55;;;2.33;;
48823;SDS011;34640;53.590;10.054;2022-08-11T08:15:20;5.63;;;2.05;;
48823;SDS011;34640;53.590;10.054;2022-08-11T08:18:11;3.90;;;1.90;;
48823;SDS011;34640;53.590;10.054;2022-08-11T08:20:57;7.70;;;1.80;;
48823;SDS011;34640;53.590;10.054;2022-08-11T08:23:43;12.05;;;2.00;;
48823;SDS011;34640;53.590;10.054;2022-08-11T08:26:23;7.63;;;2.10;;
48823;SDS011;34640;53.590;10.054;2022-08-11T08:29:23;7.80;;;2.47;;
48823;SDS011;34640;53.590;10.054;2022-08-11T08:32:16;6.22;;;1.95;;
48823;SDS011;34640;53.590;10.054;2022-08-11T08:34:50;8.38;;;1.63;;
48823;SDS011;34640;53.590;10.054;2022-08-11T08:37:26;5.07;;;2.00;;
48823;SDS011;34640;53.590;10.054;2022-08-11T08:40:17;6.25;;;1.70;;
48823;SDS011;34640;53.590;10.054;2022-08-11T08:42:51;5.43;;;1.70;;
48823;SDS011;34640;53.590;10.054;2022-08-11T08:45:28;5.30;;;1.75;;
48823;SDS011;34640;53.590;10.054;2022-08-11T08:48:10;8.55;;;1.50;;
48823;SDS011;34640;53.590;10.054;2022-08-11T08:50:49;6.10;;;2.42;;
48823;SDS011;34640;53.590;10.054;2022-08-11T08:53:45;3.40;;;1.80;;
48823;SDS011;34640;53.590;10.054;2022-08-11T08:56:25;6.13;;;1.80;;
48823;SDS011;34640;53.590;10.054;2022-08-11T08:59:00;8.02;;;2.15;;
48823;SDS011;34640;53.590;10.054;2022-08-11T09:01:39;4.68;;;1.90;;
48823;SDS011;34640;53.590;10.054;2022-08-11T09:04:18;3.35;;;1.50;;
48823;SDS011;34640;53.590;10.054;2022-08-11T09:06:52;4.72;;;1.75;;
48823;SDS011;34640;53.590;10.054;2022-08-11T09:09:27;5.80;;;2.00;;
48823;SDS011;34640;53.590;10.054;2022-08-11T09:12:00;5.00;;;1.42;;
48823;SDS011;34640;53.590;10.054;2022-08-11T09:14:36;9.13;;;3.78;;
48823;SDS011;34640;53.590;10.054;2022-08-11T09:17:30;5.32;;;1.70;;
48823;SDS011;34640;53.590;10.054;2022-08-11T09:20:07;7.57;;;1.70;;
48823;SDS011;34640;53.590;10.054;2022-08-11T09:22:44;6.15;;;1.65;;
48823;SDS011;34640;53.590;10.054;2022-08-11T09:25:58;2.55;;;1.50;;
48823;SDS011;34640;53.590;10.054;2022-08-11T09:28:49;4.63;;;1.30;;
48823;SDS011;34640;53.590;10.054;2022-08-11T09:31:24;3.47;;;1.23;;
48823;SDS011;34640;53.590;10.054;2022-08-11T09:33:58;3.80;;;1.60;;
48823;SDS011;34640;53.590;10.054;2022-08-11T09:36:33;3.65;;;1.38;;
48823;SDS011;34640;53.590;10.054;2022-08-11T09:39:24;2.55;;;1.48;;
48823;SDS011;34640;53.590;10.054;2022-08-11T09:42:17;5.68;;;1.30;;
48823;SDS011;34640;53.590;10.054;2022-08-11T09:44:54;3.10;;;1.73;;
48823;SDS011;34640;53.590;10.054;2022-08-11T09:47:28;3.40;;;1.42;;
48823;SDS011;34640;53.590;10.054;2022-08-11T09:50:03;3.35;;;1.30;;
48823;SDS011;34640;53.590;10.054;2022-08-11T09:52:39;4.03;;;1.42;;
48823;SDS011;34640;53.590;10.054;2022-08-11T09:55:32;3.15;;;1.70;;
48823;SDS011;34640;53.590;10.054;2022-08-11T09:58:06;6.38;;;1.50;;
48823;SDS011;34640;53.590;10.054;2022-08-11T10:01:08;2.38;;;1.48;;
48823;SDS011;34640;53.590;10.054;2022-08-11T10:03:59;3.50;;;1.10;;
48823;SDS011;34640;53.590;10.054;2022-08-11T10:06:36;6.53;;;1.70;;
48823;SDS011;34640;53.590;10.054;2022-08-11T10:09:33;2.60;;;1.40;;
48823;SDS011;34640;53.590;10.054;2022-08-11T10:12:10;2.50;;;1.20;;
48823;SDS011;34640;53.590;10.054;2022-08-11T10:14:49;5.20;;;1.20;;
48823;SDS011;34640;53.590;10.054;2022-08-11T10:17:45;4.53;;;1.23;;
48823;SDS011;34640;53.590;10.054;2022-08-11T10:20:34;5.05;;;1.50;;
48823;SDS011;34640;53.590;10.054;2022-08-11T10:23:10;8.88;;;1.60;;
48823;SDS011;34640;53.590;10.054;2022-08-11T10:26:02;1.98;;;1.23;;
48823;SDS011;34640;53.590;10.054;2022-08-11T10:28:54;5.47;;;1.13;;
48823;SDS011;34640;53.590;10.054;2022-08-11T10:31:43;11.15;;;1.50;;
48823;SDS011;34640;53.590;10.054;2022-08-11T10:34:44;3.33;;;1.40;;
48823;SDS011;34640;53.590;10.054;2022-08-11T10:37:25;5.57;;;1.33;;
48823;SDS011;34640;53.590;10.054;2022-08-11T10:40:26;2.67;;;1.00;;
48823;SDS011;34640;53.590;10.054;2022-08-11T10:43:00;4.35;;;1.23;;
48823;SDS011;34640;53.590;10.054;2022-08-11T10:45:44;5.97;;;1.65;;
48823;SDS011;34640;53.590;10.054;2022-08-11T10:48:38;5.25;;;1.42;;
48823;SDS011;34640;53.590;10.054;2022-08-11T10:51:11;3.40;;;1.20;;
48823;SDS011;34640;53.590;10.054;2022-08-11T10:53:45;2.75;;;1.23;;
48823;SDS011;34640;53.590;10.054;2022-08-11T10:56:44;3.92;;;1.52;;
48823;SDS011;34640;53.590;10.054;2022-08-11T10:59:34;5.15;;;1.40;;
48823;SDS011;34640;53.590;10.054;2022-08-11T11:02:08;2.88;;;1.20;;
48823;SDS011;34640;53.590;10.054;2022-08-11T11:04:51;4.30;;;1.42;;
48823;SDS011;34640;53.590;10.054;2022-08-11T11:07:35;3.45;;;1.40;;
48823;SDS011;34640;53.590;10.054;2022-08-11T11:10:15;5.80;;;1.77;;
48823;SDS011;34640;53.590;10.054;2022-08-11T11:12:52;2.30;;;1.10;;
48823;SDS011;34640;53.590;10.054;2022-08-11T11:15:44;2.22;;;1.23;;
48823;SDS011;34640;53.590;10.054;2022-08-11T11:18:36;3.65;;;1.30;;
48823;SDS011;34640;53.590;10.054;2022-08-11T11:21:12;2.08;;;1.17;;
48823;SDS011;34640;53.590;10.054;2022-08-11T11:23:52;4.25;;;0.98;;
48823;SDS011;34640;53.590;10.054;2022-08-11T11:26:38;1.85;;;1.17;;
48823;SDS011;34640;53.590;10.054;2022-08-11T11:29:32;3.95;;;1.25;;
48823;SDS011;34640;53.590;10.054;2022-08-11T11:32:21;4.70;;;1.10;;
48823;SDS011;34640;53.590;10.054;2022-08-11T11:35:03;4.97;;;1.10;;
48823;SDS011;34640;53.590;10.054;2022-08-11T11:37:49;1.77;;;0.88;;
48823;SDS011;34640;53.590;10.054;2022-08-11T11:40:36;2.95;;;1.30;;
48823;SDS011;34640;53.590;10.054;2022-08-11T11:43:11;3.10;;;1.00;;
48823;SDS011;34640;53.590;10.054;2022-08-11T11:45:45;3.00;;;1.42;;
48823;SDS011;34640;53.590;10.054;2022-08-11T11:48:19;2.95;;;0.93;;
48823;SDS011;34640;53.590;10.054;2022-08-11T11:50:52;4.55;;;1.02;;
48823;SDS011;34640;53.590;10.054;2022-08-11T11:53:29;2.28;;;1.10;;
48823;SDS011;34640;53.590;10.054;2022-08-11T11:56:03;4.65;;;1.10;;
48823;SDS011;34640;53.590;10.054;2022-08-11T11:58:37;5.50;;;1.20;;
48823;SDS011;34640;53.590;10.054;2022-08-11T12:01:30;8.55;;;1.30;;
48823;SDS011;34640;53.590;10.054;2022-08-11T12:04:04;2.47;;;1.17;;
48823;SDS011;34640;53.590;10.054;2022-08-11T12:06:38;1.98;;;0.95;;
48823;SDS011;34640;53.590;10.054;2022-08-11T12:09:13;5.75;;;1.13;;
48823;SDS011;34640;53.590;10.054;2022-08-11T12:11:48;3.88;;;1.30;;
48823;SDS011;34640;53.590;10.054;2022-08-11T12:14:39;3.08;;;1.00;;
48823;SDS011;34640;53.590;10.054;2022-08-11T12:17:14;3.42;;;1.00;;
48823;SDS011;34640;53.590;10.054;2022-08-11T12:19:47;5.13;;;0.88;;
48823;SDS011;34640;53.590;10.054;2022-08-11T12:22:21;1.38;;;0.70;;
48823;SDS011;34640;53.590;10.054;2022-08-11T12:25:12;1.38;;;0.90;;
48823;SDS011;34640;53.590;10.054;2022-08-11T12:28:03;3.28;;;0.90;;
48823;SDS011;34640;53.590;10.054;2022-08-11T12:30:36;5.07;;;1.42;;
48823;SDS011;34640;53.590;10.054;2022-08-11T12:33:18;2.08;;;1.00;;
48823;SDS011;34640;53.590;10.054;2022-08-11T12:35:55;6.15;;;1.40;;
48823;SDS011;34640;53.590;10.054;2022-08-11T12:38:31;4.45;;;1.20;;
48823;SDS011;34640;53.590;10.054;2022-08-11T12:41:08;3.35;;;0.98;;
48823;SDS011;34640;53.590;10.054;2022-08-11T12:44:01;3.83;;;1.30;;
48823;SDS011;34640;53.590;10.054;2022-08-11T12:47:07;3.80;;;1.15;;
48823;SDS011;34640;53.590;10.054;2022-08-11T12:49:43;2.70;;;1.00;;
48823;SDS011;34640;53.590;10.054;2022-08-11T12:52:53;3.85;;;1.10;;
48823;SDS011;34640;53.590;10.054;2022-08-11T12:55:27;4.82;;;1.20;;
48823;SDS011;34640;53.590;10.054;2022-08-11T12:58:35;3.20;;;1.10;;
48823;SDS011;34640;53.590;10.054;2022-08-11T13:01:12;3.65;;;1.13;;
48823;SDS011;34640;53.590;10.054;2022-08-11T13:04:03;2.92;;;0.90;;
48823;SDS011;34640;53.590;10.054;2022-08-11T13:06:59;2.88;;;0.88;;
48823;SDS011;34640;53.590;10.054;2022-08-11T13:09:33;3.85;;;1.02;;
48823;SDS011;34640;53.590;10.054;2022-08-11T13:12:06;3.00;;;0.90;;
48823;SDS011;34640;53.590;10.054;2022-08-11T13:14:57;2.63;;;0.98;;
48823;SDS011;34640;53.590;10.054;2022-08-11T13:17:32;3.38;;;1.17;;
48823;SDS011;34640;53.590;10.054;2022-08-11T13:20:15;5.35;;;1.20;;
48823;SDS011;34640;53.590;10.054;2022-08-11T13:22:52;1.63;;;0.90;;
48823;SDS011;34640;53.590;10.054;2022-08-11T13:25:27;5.07;;;1.15;;
48823;SDS011;34640;53.590;10.054;2022-08-11T13:28:03;2.03;;;1.08;;
48823;SDS011;34640;53.590;10.054;2022-08-11T13:30:37;4.78;;;0.93;;
48823;SDS011;34640;53.590;10.054;2022-08-11T13:33:29;1.80;;;0.85;;
48823;SDS011;34640;53.590;10.054;2022-08-11T13:36:04;5.88;;;1.17;;
48823;SDS011;34640;53.590;10.054;2022-08-11T13:38:40;2.03;;;0.80;;
48823;SDS011;34640;53.590;10.054;2022-08-11T13:41:21;1.80;;;0.98;;
48823;SDS011;34640;53.590;10.054;2022-08-11T13:44:10;4.28;;;1.80;;
48823;SDS011;34640;53.590;10.054;2022-08-11T13:46:49;3.45;;;1.55;;
48823;SDS011;34640;53.590;10.054;2022-08-11T13:49:24;2.35;;;1.00;;
48823;SDS011;34640;53.590;10.054;2022-08-11T13:51:58;3.03;;;1.20;;
48823;SDS011;34640;53.590;10.054;2022-08-11T13:54:34;4.30;;;1.00;;
48823;SDS011;34640;53.590;10.054;2022-08-11T13:57:10;3.35;;;1.10;;
48823;SDS011;34640;53.590;10.054;2022-08-11T14:00:06;4.00;;;1.30;;
48823;SDS011;34640;53.590;10.054;2022-08-11T14:02:58;1.67;;;0.90;;
48823;SDS011;34640;53.590;10.054;2022-08-11T14:05:32;3.42;;;1.27;;
48823;SDS011;34640;53.590;10.054;2022-08-11T14:08:17;3.65;;;1.08;;
48823;SDS011;34640;53.590;10.054;2022-08-11T14:11:10;4.28;;;1.10;;
48823;SDS011;34640;53.590;10.054;2022-08-11T14:14:25;2.58;;;1.00;;
48823;SDS011;34640;53.590;10.054;2022-08-11T14:17:05;2.95;;;1.00;;
48823;SDS011;34640;53.590;10.054;2022-08-11T14:19:40;5.22;;;0.90;;
48823;SDS011;34640;53.590;10.054;2022-08-11T14:22:19;6.25;;;1.02;;
48823;SDS011;34640;53.590;10.054;2022-08-11T14:24:52;2.63;;;0.90;;
48823;SDS011;34640;53.590;10.054;2022-08-11T14:27:28;2.25;;;1.00;;
48823;SDS011;34640;53.590;10.054;2022-08-11T14:30:22;3.85;;;1.00;;
48823;SDS011;34640;53.590;10.054;2022-08-11T14:33:12;5.95;;;1.00;;
48823;SDS011;34640;53.590;10.054;2022-08-11T14:35:48;4.97;;;1.20;;
48823;SDS011;34640;53.590;10.054;2022-08-11T14:38:21;3.67;;;1.17;;
48823;SDS011;34640;53.590;10.054;2022-08-11T14:40:55;3.28;;;1.52;;
48823;SDS011;34640;53.590;10.054;2022-08-11T14:43:47;2.75;;;0.93;;
48823;SDS011;34640;53.590;10.054;2022-08-11T14:46:44;2.70;;;0.95;;
48823;SDS011;34640;53.590;10.054;2022-08-11T14:49:55;3.63;;;1.30;;
48823;SDS011;34640;53.590;10.054;2022-08-11T14:52:44;7.68;;;1.10;;
48823;SDS011;34640;53.590;10.054;2022-08-11T14:55:24;6.18;;;2.75;;
48823;SDS011;34640;53.590;10.054;2022-08-11T14:58:18;1.65;;;0.90;;
48823;SDS011;34640;53.590;10.054;2022-08-11T15:00:56;2.35;;;1.10;;
48823;SDS011;34640;53.590;10.054;2022-08-11T15:03:30;7.95;;;1.52;;
48823;SDS011;34640;53.590;10.054;2022-08-11T15:06:04;3.65;;;1.20;;
48823;SDS011;34640;53.590;10.054;2022-08-11T15:08:37;7.65;;;1.25;;
48823;SDS011;34640;53.590;10.054;2022-08-11T15:11:28;4.78;;;1.05;;
48823;SDS011;34640;53.590;10.054;2022-08-11T15:14:20;4.13;;;2.25;;
48823;SDS011;34640;53.590;10.054;2022-08-11T15:17:09;5.18;;;1.45;;
48823;SDS011;34640;53.590;10.054;2022-08-11T15:19:43;3.10;;;0.90;;
48823;SDS011;34640;53.590;10.054;2022-08-11T15:22:31;3.87;;;1.30;;
48823;SDS011;34640;53.590;10.054;2022-08-11T15:25:21;5.05;;;1.20;;
48823;SDS011;34640;53.590;10.054;2022-08-11T15:27:54;2.58;;;1.20;;
48823;SDS011;34640;53.590;10.054;2022-08-11T15:30:48;7.30;;;1.10;;
48823;SDS011;34640;53.590;10.054;2022-08-11T15:33:44;2.47;;;1.20;;
48823;SDS011;34640;53.590;10.054;2022-08-11T15:36:38;4.43;;;1.23;;
48823;SDS011;34640;53.590;10.054;2022-08-11T15:39:33;5.50;;;1.42;;
48823;SDS011;34640;53.590;10.054;2022-08-11T15:42:29;4.22;;;1.15;;
48823;SDS011;34640;53.590;10.054;2022-08-11T15:45:22;2.20;;;1.13;;
48823;SDS011;34640;53.590;10.054;2022-08-11T15:48:21;2.90;;;1.25;;
48823;SDS011;34640;53.590;10.054;2022-08-11T15:51:04;3.58;;;1.05;;
48823;SDS011;34640;53.590;10.054;2022-08-11T15:53:42;3.80;;;1.20;;
48823;SDS011;34640;53.590;10.054;2022-08-11T15:56:28;2.53;;;1.00;;
48823;SDS011;34640;53.590;10.054;2022-08-11T15:59:03;4.55;;;1.33;;
48823;SDS011;34640;53.590;10.054;2022-08-11T16:02:14;4.00;;;1.08;;
48823;SDS011;34640;53.590;10.054;2022-08-11T16:05:10;9.63;;;1.30;;
48823;SDS011;34640;53.590;10.054;2022-08-11T16:08:09;10.68;;;1.17;;
48823;SDS011;34640;53.590;10.054;2022-08-11T16:10:45;5.78;;;1.10;;
48823;SDS011;34640;53.590;10.054;2022-08-11T16:13:21;2.95;;;1.40;;
48823;SDS011;34640;53.590;10.054;2022-08-11T16:16:13;4.18;;;1.02;;
48823;SDS011;34640;53.590;10.054;2022-08-11T16:18:49;4.13;;;1.20;;
48823;SDS011;34640;53.590;10.054;2022-08-11T16:21:27;3.15;;;1.10;;
48823;SDS011;34640;53.590;10.054;2022-08-11T16:24:08;3.58;;;1.02;;
48823;SDS011;34640;53.590;10.054;2022-08-11T16:27:04;3.53;;;1.30;;
48823;SDS011;34640;53.590;10.054;2022-08-11T16:29:44;4.28;;;1.65;;
48823;SDS011;34640;53.590;10.054;2022-08-11T16:32:19;4.47;;;1.13;;
48823;SDS011;34640;53.590;10.054;2022-08-11T16:34:55;3.80;;;0.95;;
48823;SDS011;34640;53.590;10.054;2022-08-11T16:37:48;4.32;;;1.10;;
48823;SDS011;34640;53.590;10.054;2022-08-11T16:40:42;4.15;;;1.58;;
48823;SDS011;34640;53.590;10.054;2022-08-11T16:43:17;4.90;;;0.95;;
48823;SDS011;34640;53.590;10.054;2022-08-11T16:46:11;2.70;;;1.00;;
48823;SDS011;34640;53.590;10.054;2022-08-11T16:49:11;11.38;;;1.20;;
48823;SDS011;34640;53.590;10.054;2022-08-11T16:51:48;7.37;;;0.90;;
48823;SDS011;34640;53.590;10.054;2022-08-11T16:54:21;4.78;;;1.30;;
48823;SDS011;34640;53.590;10.054;2022-08-11T16:56:59;2.28;;;0.95;;
48823;SDS011;34640;53.590;10.054;2022-08-11T16:59:50;2.83;;;1.00;;
48823;SDS011;34640;53.590;10.054;2022-08-11T17:02:31;2.17;;;1.10;;
48823;SDS011;34640;53.590;10.054;2022-08-11T17:05:25;4.53;;;0.82;;
48823;SDS011;34640;53.590;10.054;2022-08-11T17:08:27;4.13;;;1.00;;
48823;SDS011;34640;53.590;10.054;2022-08-11T17:11:30;3.00;;;1.20;;
48823;SDS011;34640;53.590;10.054;2022-08-11T17:14:28;2.55;;;1.15;;
48823;SDS011;34640;53.590;10.054;2022-08-11T17:17:10;5.72;;;1.13;;
48823;SDS011;34640;53.590;10.054;2022-08-11T17:19:46;3.35;;;1.00;;
48823;SDS011;34640;53.590;10.054;2022-08-11T17:22:41;9.52;;;0.90;;
48823;SDS011;34640;53.590;10.054;2022-08-11T17:25:33;4.68;;;1.30;;
48823;SDS011;34640;53.590;10.054;2022-08-11T17:28:27;5.38;;;1.38;;
48823;SDS011;34640;53.590;10.054;2022-08-11T17:31:03;6.05;;;1.02;;